sensor_id;sensor_type;location;lat;lon;timestamp;P1;durP1;ratioP1;P2;durP2;ratioP2
2570;SDS011;1295;51.130;6.732;2023-03-09T00:02:26;97.90;;;24.47;;
2570;SDS011;1295;51.130;6.732;2023-03-09T00:04:51;92.07;;;23.27;;
2570;SDS011;1295;51.130;6.732;2023-03-09T00:07:17;87.43;;;20.40;;
2570;SDS011;1295;51.130;6.732;2023-03-09T00:09:42;98.87;;;30.87;;
2570;SDS011;1295;51.130;6.732;2023-03-09T00:12:08;104.43;;;35.50;;
2570;SDS011;1295;51.130;6.732;2023-03-09T00:14:34;86.93;;;25.90;;
2570;SDS011;1295;51.130;6.732;2023-03-09T00:16:59;101.67;;;32.37;;
2570;SDS011;1295;51.130;6.732;2023-03-09T00:19:25;98.57;;;28.93;;
2570;SDS011;1295;51.130;6.732;2023-03-09T00:21:54;87.20;;;26.53;;
2570;SDS011;1295;51.130;6.732;2023-03-09T00:24:23;100.87;;;30.50;;
2570;SDS011;1295;51.130;6.732;2023-03-09T00:26:48;101.07;;;29.07;;
2570;SDS011;1295;51.130;6.732;2023-03-09T00:29:13;93.70;;;25.10;;
2570;SDS011;1295;51.130;6.732;2023-03-09T00:31:39;92.30;;;28.93;;
2570;SDS011;1295;51.130;6.732;2023-03-09T00:34:05;101.30;;;28.30;;
2570;SDS011;1295;51.130;6.732;2023-03-09T00:36:30;88.03;;;24.17;;
2570;SDS011;1295;51.130;6.732;2023-03-09T00:38:56;89.40;;;24.40;;
2570;SDS011;1295;51.130;6.732;2023-03-09T00:41:22;89.80;;;27.40;;
2570;SDS011;1295;51.130;6.732;2023-03-09T00:43:47;91.47;;;27.50;;
2570;SDS011;1295;51.130;6.732;2023-03-09T00:46:21;84.77;;;23.57;;
2570;SDS011;1295;51.130;6.732;2023-03-09T00:48:47;93.70;;;27.77;;
2570;SDS011;1295;51.130;6.732;2023-03-09T00:51:13;90.87;;;25.50;;
2570;SDS011;1295;51.130;6.732;2023-03-09T00:53:39;88.00;;;23.87;;
2570;SDS011;1295;51.130;6.732;2023-03-09T00:56:06;94.30;;;24.23;;
2570;SDS011;1295;51.130;6.732;2023-03-09T00:58:31;98.87;;;26.50;;
2570;SDS011;1295;51.130;6.732;2023-03-09T01:00:56;88.90;;;21.57;;
2570;SDS011;1295;51.130;6.732;2023-03-09T01:03:22;84.33;;;21.47;;
2570;SDS011;1295;51.130;6.732;2023-03-09T01:05:48;91.10;;;24.43;;
2570;SDS011;1295;51.130;6.732;2023-03-09T01:08:14;99.80;;;26.50;;
2570;SDS011;1295;51.130;6.732;2023-03-09T01:10:40;88.87;;;20.37;;
2570;SDS011;1295;51.130;6.732;2023-03-09T01:13:06;94.00;;;25.30;;
2570;SDS011;1295;51.130;6.732;2023-03-09T01:15:32;88.27;;;21.30;;
2570;SDS011;1295;51.130;6.732;2023-03-09T01:17:57;95.77;;;24.23;;
2570;SDS011;1295;51.130;6.732;2023-03-09T01:20:23;86.80;;;23.30;;
2570;SDS011;1295;51.130;6.732;2023-03-09T01:22:48;90.93;;;25.60;;
2570;SDS011;1295;51.130;6.732;2023-03-09T01:25:14;91.33;;;24.17;;
2570;SDS011;1295;51.130;6.732;2023-03-09T01:27:40;90.00;;;21.93;;
2570;SDS011;1295;51.130;6.732;2023-03-09T01:30:06;89.97;;;22.73;;
2570;SDS011;1295;51.130;6.732;2023-03-09T01:32:33;93.60;;;22.87;;
2570;SDS011;1295;51.130;6.732;2023-03-09T01:34:59;94.40;;;22.77;;
2570;SDS011;1295;51.130;6.732;2023-03-09T01:37:25;88.07;;;19.30;;
2570;SDS011;1295;51.130;6.732;2023-03-09T01:39:51;88.93;;;21.33;;
2570;SDS011;1295;51.130;6.732;2023-03-09T01:42:16;90.37;;;20.30;;
2570;SDS011;1295;51.130;6.732;2023-03-09T01:44:42;93.10;;;22.03;;
2570;SDS011;1295;51.130;6.732;2023-03-09T01:47:07;87.67;;;19.37;;
2570;SDS011;1295;51.130;6.732;2023-03-09T01:49:34;89.80;;;21.30;;
2570;SDS011;1295;51.130;6.732;2023-03-09T01:52:03;86.37;;;17.67;;
2570;SDS011;1295;51.130;6.732;2023-03-09T01:54:46;92.17;;;21.77;;
2570;SDS011;1295;51.130;6.732;2023-03-09T01:59:44;89.63;;;23.57;;
2570;SDS011;1295;51.130;6.732;2023-03-09T02:02:10;92.00;;;23.00;;
2570;SDS011;1295;51.130;6.732;2023-03-09T02:04:38;87.80;;;21.40;;
2570;SDS011;1295;51.130;6.732;2023-03-09T02:07:02;92.57;;;23.70;;
2570;SDS011;1295;51.130;6.732;2023-03-09T02:09:31;90.00;;;22.63;;
2570;SDS011;1295;51.130;6.732;2023-03-09T02:11:55;93.40;;;22.93;;
2570;SDS011;1295;51.130;6.732;2023-03-09T02:14:20;92.90;;;24.07;;
2570;SDS011;1295;51.130;6.732;2023-03-09T02:16:47;97.80;;;24.10;;
2570;SDS011;1295;51.130;6.732;2023-03-09T02:19:16;87.60;;;23.80;;
2570;SDS011;1295;51.130;6.732;2023-03-09T02:21:44;94.10;;;22.10;;
2570;SDS011;1295;51.130;6.732;2023-03-09T02:24:17;86.20;;;22.60;;
2570;SDS011;1295;51.130;6.732;2023-03-09T02:29:36;88.47;;;20.87;;
2570;SDS011;1295;51.130;6.732;2023-03-09T02:32:01;87.43;;;19.27;;
2570;SDS011;1295;51.130;6.732;2023-03-09T02:34:27;95.33;;;20.87;;
2570;SDS011;1295;51.130;6.732;2023-03-09T02:36:53;88.10;;;21.60;;
2570;SDS011;1295;51.130;6.732;2023-03-09T02:39:42;87.37;;;22.37;;
2570;SDS011;1295;51.130;6.732;2023-03-09T02:42:05;86.00;;;19.80;;
2570;SDS011;1295;51.130;6.732;2023-03-09T02:44:32;81.90;;;19.63;;
2570;SDS011;1295;51.130;6.732;2023-03-09T02:46:59;88.00;;;19.00;;
2570;SDS011;1295;51.130;6.732;2023-03-09T02:49:25;86.10;;;19.07;;
2570;SDS011;1295;51.130;6.732;2023-03-09T02:51:51;82.70;;;17.23;;
2570;SDS011;1295;51.130;6.732;2023-03-09T02:54:16;87.20;;;20.90;;
2570;SDS011;1295;51.130;6.732;2023-03-09T02:56:42;87.00;;;21.10;;
2570;SDS011;1295;51.130;6.732;2023-03-09T02:59:08;91.63;;;24.93;;
2570;SDS011;1295;51.130;6.732;2023-03-09T03:01:33;88.17;;;21.03;;
2570;SDS011;1295;51.130;6.732;2023-03-09T03:03:59;88.17;;;24.80;;
2570;SDS011;1295;51.130;6.732;2023-03-09T03:06:24;95.80;;;24.97;;
2570;SDS011;1295;51.130;6.732;2023-03-09T03:08:50;88.83;;;24.33;;
2570;SDS011;1295;51.130;6.732;2023-03-09T03:11:16;92.80;;;28.10;;
2570;SDS011;1295;51.130;6.732;2023-03-09T03:13:42;86.63;;;21.27;;
2570;SDS011;1295;51.130;6.732;2023-03-09T03:16:08;89.20;;;23.13;;
2570;SDS011;1295;51.130;6.732;2023-03-09T03:18:33;85.97;;;22.47;;
2570;SDS011;1295;51.130;6.732;2023-03-09T03:20:59;86.17;;;21.03;;
2570;SDS011;1295;51.130;6.732;2023-03-09T03:23:25;87.93;;;21.77;;
2570;SDS011;1295;51.130;6.732;2023-03-09T03:25:50;86.53;;;21.10;;
2570;SDS011;1295;51.130;6.732;2023-03-09T03:28:16;88.87;;;25.07;;
2570;SDS011;1295;51.130;6.732;2023-03-09T03:30:42;87.50;;;20.97;;
2570;SDS011;1295;51.130;6.732;2023-03-09T03:33:08;89.27;;;24.00;;
2570;SDS011;1295;51.130;6.732;2023-03-09T03:35:35;99.77;;;26.30;;
2570;SDS011;1295;51.130;6.732;2023-03-09T03:38:00;88.33;;;20.87;;
2570;SDS011;1295;51.130;6.732;2023-03-09T03:40:26;87.23;;;22.27;;
2570;SDS011;1295;51.130;6.732;2023-03-09T03:42:52;84.10;;;17.40;;
2570;SDS011;1295;51.130;6.732;2023-03-09T03:45:17;86.97;;;20.70;;
2570;SDS011;1295;51.130;6.732;2023-03-09T03:47:43;89.27;;;19.97;;
2570;SDS011;1295;51.130;6.732;2023-03-09T03:50:09;82.77;;;19.73;;
2570;SDS011;1295;51.130;6.732;2023-03-09T03:52:36;88.50;;;20.07;;
2570;SDS011;1295;51.130;6.732;2023-03-09T03:55:02;105.70;;;26.40;;
2570;SDS011;1295;51.130;6.732;2023-03-09T03:57:29;93.87;;;21.70;;
2570;SDS011;1295;51.130;6.732;2023-03-09T04:00:06;88.57;;;19.60;;
2570;SDS011;1295;51.130;6.732;2023-03-09T04:02:33;93.40;;;24.20;;
2570;SDS011;1295;51.130;6.732;2023-03-09T04:04:59;92.80;;;19.77;;
2570;SDS011;1295;51.130;6.732;2023-03-09T04:07:25;89.87;;;19.73;;
2570;SDS011;1295;51.130;6.732;2023-03-09T04:09:51;94.30;;;25.07;;
2570;SDS011;1295;51.130;6.732;2023-03-09T04:12:16;95.67;;;24.80;;
2570;SDS011;1295;51.130;6.732;2023-03-09T04:14:42;101.17;;;25.80;;
2570;SDS011;1295;51.130;6.732;2023-03-09T04:17:08;91.13;;;22.23;;
2570;SDS011;1295;51.130;6.732;2023-03-09T04:19:33;113.77;;;27.90;;
2570;SDS011;1295;51.130;6.732;2023-03-09T04:21:59;89.47;;;20.50;;
2570;SDS011;1295;51.130;6.732;2023-03-09T04:24:24;122.83;;;33.20;;
2570;SDS011;1295;51.130;6.732;2023-03-09T04:26:50;94.27;;;21.70;;
2570;SDS011;1295;51.130;6.732;2023-03-09T04:29:16;122.50;;;32.17;;
2570;SDS011;1295;51.130;6.732;2023-03-09T04:31:41;99.90;;;28.10;;
2570;SDS011;1295;51.130;6.732;2023-03-09T04:34:09;120.73;;;37.80;;
2570;SDS011;1295;51.130;6.732;2023-03-09T04:36:33;96.30;;;25.23;;
2570;SDS011;1295;51.130;6.732;2023-03-09T04:38:59;102.00;;;31.47;;
2570;SDS011;1295;51.130;6.732;2023-03-09T04:41:25;98.23;;;28.13;;
2570;SDS011;1295;51.130;6.732;2023-03-09T04:43:50;117.93;;;33.23;;
2570;SDS011;1295;51.130;6.732;2023-03-09T04:46:17;120.00;;;39.40;;
2570;SDS011;1295;51.130;6.732;2023-03-09T04:48:42;120.13;;;39.60;;
2570;SDS011;1295;51.130;6.732;2023-03-09T04:51:08;108.03;;;35.07;;
2570;SDS011;1295;51.130;6.732;2023-03-09T04:53:34;126.03;;;37.23;;
2570;SDS011;1295;51.130;6.732;2023-03-09T04:55:59;119.20;;;33.57;;
2570;SDS011;1295;51.130;6.732;2023-03-09T04:58:26;116.37;;;29.57;;
2570;SDS011;1295;51.130;6.732;2023-03-09T05:00:51;109.10;;;27.20;;
2570;SDS011;1295;51.130;6.732;2023-03-09T05:03:18;109.93;;;31.47;;
2570;SDS011;1295;51.130;6.732;2023-03-09T05:05:43;105.63;;;27.40;;
2570;SDS011;1295;51.130;6.732;2023-03-09T05:08:09;96.17;;;26.23;;
2570;SDS011;1295;51.130;6.732;2023-03-09T05:10:35;117.27;;;34.73;;
2570;SDS011;1295;51.130;6.732;2023-03-09T05:13:01;98.93;;;26.57;;
2570;SDS011;1295;51.130;6.732;2023-03-09T05:15:27;125.57;;;37.00;;
2570;SDS011;1295;51.130;6.732;2023-03-09T05:17:52;123.00;;;34.73;;
2570;SDS011;1295;51.130;6.732;2023-03-09T05:20:18;119.47;;;39.37;;
2570;SDS011;1295;51.130;6.732;2023-03-09T05:22:44;118.77;;;39.07;;
2570;SDS011;1295;51.130;6.732;2023-03-09T05:25:10;122.13;;;37.53;;
2570;SDS011;1295;51.130;6.732;2023-03-09T05:27:36;107.57;;;29.60;;
2570;SDS011;1295;51.130;6.732;2023-03-09T05:30:02;121.30;;;33.67;;
2570;SDS011;1295;51.130;6.732;2023-03-09T05:32:28;124.17;;;35.33;;
2570;SDS011;1295;51.130;6.732;2023-03-09T05:34:54;107.30;;;27.33;;
2570;SDS011;1295;51.130;6.732;2023-03-09T05:37:19;105.73;;;27.30;;
2570;SDS011;1295;51.130;6.732;2023-03-09T05:39:45;111.77;;;29.90;;
2570;SDS011;1295;51.130;6.732;2023-03-09T05:42:10;98.40;;;25.50;;
2570;SDS011;1295;51.130;6.732;2023-03-09T05:44:36;104.57;;;27.70;;
2570;SDS011;1295;51.130;6.732;2023-03-09T05:47:02;122.50;;;34.30;;
2570;SDS011;1295;51.130;6.732;2023-03-09T05:49:27;109.20;;;25.60;;
2570;SDS011;1295;51.130;6.732;2023-03-09T05:51:54;124.87;;;32.87;;
2570;SDS011;1295;51.130;6.732;2023-03-09T05:54:19;100.47;;;23.97;;
2570;SDS011;1295;51.130;6.732;2023-03-09T05:56:45;116.60;;;33.67;;
2570;SDS011;1295;51.130;6.732;2023-03-09T05:59:12;109.53;;;28.70;;
2570;SDS011;1295;51.130;6.732;2023-03-09T06:01:37;101.37;;;30.57;;
2570;SDS011;1295;51.130;6.732;2023-03-09T06:04:03;107.13;;;24.97;;
2570;SDS011;1295;51.130;6.732;2023-03-09T06:06:28;109.90;;;24.83;;
2570;SDS011;1295;51.130;6.732;2023-03-09T06:08:54;113.00;;;23.93;;
2570;SDS011;1295;51.130;6.732;2023-03-09T06:11:20;107.30;;;25.50;;
2570;SDS011;1295;51.130;6.732;2023-03-09T06:13:46;112.23;;;24.80;;
2570;SDS011;1295;51.130;6.732;2023-03-09T06:16:14;111.30;;;25.70;;
2570;SDS011;1295;51.130;6.732;2023-03-09T06:18:39;111.93;;;25.40;;
2570;SDS011;1295;51.130;6.732;2023-03-09T06:21:05;101.23;;;24.87;;
2570;SDS011;1295;51.130;6.732;2023-03-09T06:23:31;108.23;;;26.77;;
2570;SDS011;1295;51.130;6.732;2023-03-09T06:25:56;105.93;;;25.30;;
2570;SDS011;1295;51.130;6.732;2023-03-09T06:28:21;117.60;;;27.27;;
2570;SDS011;1295;51.130;6.732;2023-03-09T06:30:47;123.23;;;28.80;;
2570;SDS011;1295;51.130;6.732;2023-03-09T06:33:13;112.63;;;28.83;;
2570;SDS011;1295;51.130;6.732;2023-03-09T06:35:38;116.40;;;26.07;;
2570;SDS011;1295;51.130;6.732;2023-03-09T06:38:04;107.90;;;26.37;;
2570;SDS011;1295;51.130;6.732;2023-03-09T06:40:30;111.87;;;27.67;;
2570;SDS011;1295;51.130;6.732;2023-03-09T06:42:56;114.33;;;28.80;;
2570;SDS011;1295;51.130;6.732;2023-03-09T06:45:21;125.97;;;35.10;;
2570;SDS011;1295;51.130;6.732;2023-03-09T06:47:47;113.33;;;28.83;;
2570;SDS011;1295;51.130;6.732;2023-03-09T06:50:13;114.40;;;30.47;;
2570;SDS011;1295;51.130;6.732;2023-03-09T06:52:38;124.80;;;33.00;;
2570;SDS011;1295;51.130;6.732;2023-03-09T06:55:04;116.07;;;33.90;;
2570;SDS011;1295;51.130;6.732;2023-03-09T06:57:31;114.13;;;30.77;;
2570;SDS011;1295;51.130;6.732;2023-03-09T06:59:56;116.83;;;34.33;;
2570;SDS011;1295;51.130;6.732;2023-03-09T07:02:22;122.43;;;32.73;;
2570;SDS011;1295;51.130;6.732;2023-03-09T07:04:48;114.47;;;35.27;;
2570;SDS011;1295;51.130;6.732;2023-03-09T07:07:13;116.43;;;34.70;;
2570;SDS011;1295;51.130;6.732;2023-03-09T07:09:39;127.27;;;36.50;;
2570;SDS011;1295;51.130;6.732;2023-03-09T07:12:11;121.50;;;40.80;;
2570;SDS011;1295;51.130;6.732;2023-03-09T07:14:37;120.57;;;35.30;;
2570;SDS011;1295;51.130;6.732;2023-03-09T07:17:03;120.87;;;35.37;;
2570;SDS011;1295;51.130;6.732;2023-03-09T07:19:28;116.30;;;35.17;;
2570;SDS011;1295;51.130;6.732;2023-03-09T07:21:54;126.87;;;34.20;;
2570;SDS011;1295;51.130;6.732;2023-03-09T07:24:20;117.20;;;35.53;;
2570;SDS011;1295;51.130;6.732;2023-03-09T07:26:46;116.50;;;32.30;;
2570;SDS011;1295;51.130;6.732;2023-03-09T07:29:12;117.90;;;33.30;;
2570;SDS011;1295;51.130;6.732;2023-03-09T07:31:37;113.40;;;31.53;;
2570;SDS011;1295;51.130;6.732;2023-03-09T07:34:04;106.20;;;25.53;;
2570;SDS011;1295;51.130;6.732;2023-03-09T07:36:29;118.50;;;30.97;;
2570;SDS011;1295;51.130;6.732;2023-03-09T07:38:56;122.20;;;32.70;;
2570;SDS011;1295;51.130;6.732;2023-03-09T07:41:21;120.23;;;30.00;;
2570;SDS011;1295;51.130;6.732;2023-03-09T07:43:47;117.70;;;27.30;;
2570;SDS011;1295;51.130;6.732;2023-03-09T07:46:13;141.00;;;33.00;;
2570;SDS011;1295;51.130;6.732;2023-03-09T07:48:38;137.53;;;31.53;;
2570;SDS011;1295;51.130;6.732;2023-03-09T07:51:04;131.33;;;33.50;;
2570;SDS011;1295;51.130;6.732;2023-03-09T07:53:30;132.17;;;35.30;;
2570;SDS011;1295;51.130;6.732;2023-03-09T07:55:56;146.67;;;38.50;;
2570;SDS011;1295;51.130;6.732;2023-03-09T07:58:21;106.17;;;25.73;;
2570;SDS011;1295;51.130;6.732;2023-03-09T08:00:48;112.33;;;27.70;;
2570;SDS011;1295;51.130;6.732;2023-03-09T08:03:13;115.80;;;29.13;;
2570;SDS011;1295;51.130;6.732;2023-03-09T08:05:40;123.27;;;32.50;;
2570;SDS011;1295;51.130;6.732;2023-03-09T08:08:05;122.90;;;28.90;;
2570;SDS011;1295;51.130;6.732;2023-03-09T08:10:30;129.03;;;33.33;;
2570;SDS011;1295;51.130;6.732;2023-03-09T08:12:56;128.63;;;32.20;;
2570;SDS011;1295;51.130;6.732;2023-03-09T08:15:22;113.73;;;29.97;;
2570;SDS011;1295;51.130;6.732;2023-03-09T08:17:47;110.97;;;28.70;;
2570;SDS011;1295;51.130;6.732;2023-03-09T08:20:13;128.17;;;34.27;;
2570;SDS011;1295;51.130;6.732;2023-03-09T08:22:39;122.23;;;33.83;;
2570;SDS011;1295;51.130;6.732;2023-03-09T08:25:05;126.70;;;33.00;;
2570;SDS011;1295;51.130;6.732;2023-03-09T08:27:37;108.90;;;28.47;;
2570;SDS011;1295;51.130;6.732;2023-03-09T08:30:01;125.47;;;29.20;;
2570;SDS011;1295;51.130;6.732;2023-03-09T08:32:27;122.63;;;34.17;;
2570;SDS011;1295;51.130;6.732;2023-03-09T08:34:54;107.63;;;26.37;;
2570;SDS011;1295;51.130;6.732;2023-03-09T08:37:20;120.07;;;29.67;;
2570;SDS011;1295;51.130;6.732;2023-03-09T08:39:46;110.70;;;31.00;;
2570;SDS011;1295;51.130;6.732;2023-03-09T08:42:12;119.93;;;33.90;;
2570;SDS011;1295;51.130;6.732;2023-03-09T08:44:39;121.87;;;35.30;;
2570;SDS011;1295;51.130;6.732;2023-03-09T08:47:04;114.70;;;33.70;;
2570;SDS011;1295;51.130;6.732;2023-03-09T08:49:30;115.20;;;31.60;;
2570;SDS011;1295;51.130;6.732;2023-03-09T08:51:56;116.33;;;30.60;;
2570;SDS011;1295;51.130;6.732;2023-03-09T08:54:21;107.57;;;29.07;;
2570;SDS011;1295;51.130;6.732;2023-03-09T08:56:47;105.83;;;29.50;;
2570;SDS011;1295;51.130;6.732;2023-03-09T08:59:13;113.57;;;30.10;;
2570;SDS011;1295;51.130;6.732;2023-03-09T09:01:38;121.23;;;29.97;;
2570;SDS011;1295;51.130;6.732;2023-03-09T09:04:04;117.17;;;30.80;;
2570;SDS011;1295;51.130;6.732;2023-03-09T09:06:29;125.77;;;35.03;;
2570;SDS011;1295;51.130;6.732;2023-03-09T09:08:55;120.77;;;30.47;;
2570;SDS011;1295;51.130;6.732;2023-03-09T09:11:21;121.33;;;34.40;;
2570;SDS011;1295;51.130;6.732;2023-03-09T09:13:46;129.33;;;35.27;;
2570;SDS011;1295;51.130;6.732;2023-03-09T09:16:12;107.17;;;27.40;;
2570;SDS011;1295;51.130;6.732;2023-03-09T09:18:38;122.77;;;34.87;;
2570;SDS011;1295;51.130;6.732;2023-03-09T09:21:04;103.30;;;25.03;;
2570;SDS011;1295;51.130;6.732;2023-03-09T09:23:30;113.40;;;27.70;;
2570;SDS011;1295;51.130;6.732;2023-03-09T09:25:56;128.07;;;38.53;;
2570;SDS011;1295;51.130;6.732;2023-03-09T09:28:22;107.10;;;28.90;;
2570;SDS011;1295;51.130;6.732;2023-03-09T09:30:53;114.10;;;27.50;;
2570;SDS011;1295;51.130;6.732;2023-03-09T09:33:18;100.53;;;31.40;;
2570;SDS011;1295;51.130;6.732;2023-03-09T09:35:53;111.23;;;30.60;;
2570;SDS011;1295;51.130;6.732;2023-03-09T09:38:09;112.40;;;28.70;;
2570;SDS011;1295;51.130;6.732;2023-03-09T09:40:35;101.80;;;25.73;;
2570;SDS011;1295;51.130;6.732;2023-03-09T09:43:01;109.73;;;28.63;;
2570;SDS011;1295;51.130;6.732;2023-03-09T09:45:29;105.47;;;29.17;;
2570;SDS011;1295;51.130;6.732;2023-03-09T09:47:54;101.70;;;30.37;;
2570;SDS011;1295;51.130;6.732;2023-03-09T09:50:19;109.73;;;30.00;;
2570;SDS011;1295;51.130;6.732;2023-03-09T09:52:51;108.80;;;26.63;;
2570;SDS011;1295;51.130;6.732;2023-03-09T09:55:18;114.00;;;26.60;;
2570;SDS011;1295;51.130;6.732;2023-03-09T09:57:44;99.77;;;25.23;;
2570;SDS011;1295;51.130;6.732;2023-03-09T10:00:15;107.63;;;29.50;;
2570;SDS011;1295;51.130;6.732;2023-03-09T10:03:00;100.67;;;27.80;;
2570;SDS011;1295;51.130;6.732;2023-03-09T10:05:30;103.13;;;24.70;;
2570;SDS011;1295;51.130;6.732;2023-03-09T10:07:53;101.40;;;28.37;;
2570;SDS011;1295;51.130;6.732;2023-03-09T10:10:20;95.43;;;24.10;;
2570;SDS011;1295;51.130;6.732;2023-03-09T10:12:44;106.37;;;25.20;;
2570;SDS011;1295;51.130;6.732;2023-03-09T10:15:14;106.90;;;27.00;;
2570;SDS011;1295;51.130;6.732;2023-03-09T10:17:41;116.20;;;30.87;;
2570;SDS011;1295;51.130;6.732;2023-03-09T10:20:21;105.47;;;36.83;;
2570;SDS011;1295;51.130;6.732;2023-03-09T10:22:47;107.97;;;43.17;;
2570;SDS011;1295;51.130;6.732;2023-03-09T10:25:12;111.60;;;30.40;;
2570;SDS011;1295;51.130;6.732;2023-03-09T10:27:40;109.30;;;40.30;;
2570;SDS011;1295;51.130;6.732;2023-03-09T10:30:07;105.87;;;28.97;;
2570;SDS011;1295;51.130;6.732;2023-03-09T10:32:37;109.57;;;27.50;;
2570;SDS011;1295;51.130;6.732;2023-03-09T10:35:07;104.60;;;31.33;;
2570;SDS011;1295;51.130;6.732;2023-03-09T10:37:33;103.30;;;23.47;;
2570;SDS011;1295;51.130;6.732;2023-03-09T10:39:58;97.53;;;23.87;;
2570;SDS011;1295;51.130;6.732;2023-03-09T10:42:25;103.20;;;25.67;;
2570;SDS011;1295;51.130;6.732;2023-03-09T10:44:56;109.17;;;30.30;;
2570;SDS011;1295;51.130;6.732;2023-03-09T10:47:22;108.50;;;30.20;;
2570;SDS011;1295;51.130;6.732;2023-03-09T10:52:26;105.00;;;26.10;;
2570;SDS011;1295;51.130;6.732;2023-03-09T10:54:51;103.87;;;29.17;;
2570;SDS011;1295;51.130;6.732;2023-03-09T10:57:22;108.73;;;30.20;;
2570;SDS011;1295;51.130;6.732;2023-03-09T11:02:27;116.10;;;38.00;;
2570;SDS011;1295;51.130;6.732;2023-03-09T11:04:55;110.33;;;30.90;;
2570;SDS011;1295;51.130;6.732;2023-03-09T11:07:22;107.27;;;34.27;;
2570;SDS011;1295;51.130;6.732;2023-03-09T11:09:47;110.70;;;41.23;;
2570;SDS011;1295;51.130;6.732;2023-03-09T11:12:47;118.00;;;46.90;;
2570;SDS011;1295;51.130;6.732;2023-03-09T11:15:00;105.90;;;35.13;;
2570;SDS011;1295;51.130;6.732;2023-03-09T11:17:33;115.17;;;40.93;;
2570;SDS011;1295;51.130;6.732;2023-03-09T11:22:35;106.70;;;33.73;;
2570;SDS011;1295;51.130;6.732;2023-03-09T11:25:01;111.60;;;36.03;;
2570;SDS011;1295;51.130;6.732;2023-03-09T11:27:27;107.20;;;38.30;;
2570;SDS011;1295;51.130;6.732;2023-03-09T11:29:56;105.67;;;37.20;;
2570;SDS011;1295;51.130;6.732;2023-03-09T11:32:20;104.90;;;40.90;;
2570;SDS011;1295;51.130;6.732;2023-03-09T11:34:46;101.23;;;37.40;;
2570;SDS011;1295;51.130;6.732;2023-03-09T11:37:15;102.20;;;36.93;;
2570;SDS011;1295;51.130;6.732;2023-03-09T11:39:49;107.20;;;36.30;;
2570;SDS011;1295;51.130;6.732;2023-03-09T11:42:14;108.53;;;36.10;;
2570;SDS011;1295;51.130;6.732;2023-03-09T11:44:40;103.37;;;37.67;;
2570;SDS011;1295;51.130;6.732;2023-03-09T11:47:24;111.33;;;37.90;;
2570;SDS011;1295;51.130;6.732;2023-03-09T11:49:36;109.27;;;36.73;;
2570;SDS011;1295;51.130;6.732;2023-03-09T11:52:03;108.97;;;36.73;;
2570;SDS011;1295;51.130;6.732;2023-03-09T11:54:30;108.23;;;32.53;;
2570;SDS011;1295;51.130;6.732;2023-03-09T11:56:55;117.37;;;32.90;;
2570;SDS011;1295;51.130;6.732;2023-03-09T11:59:32;108.83;;;30.03;;
2570;SDS011;1295;51.130;6.732;2023-03-09T12:02:03;106.30;;;31.00;;
2570;SDS011;1295;51.130;6.732;2023-03-09T12:04:27;99.23;;;26.17;;
2570;SDS011;1295;51.130;6.732;2023-03-09T12:06:55;102.10;;;25.67;;
2570;SDS011;1295;51.130;6.732;2023-03-09T12:12:19;110.97;;;31.03;;
2570;SDS011;1295;51.130;6.732;2023-03-09T12:14:44;112.50;;;28.23;;
2570;SDS011;1295;51.130;6.732;2023-03-09T12:17:13;125.20;;;33.20;;
2570;SDS011;1295;51.130;6.732;2023-03-09T12:19:36;112.40;;;32.97;;
2570;SDS011;1295;51.130;6.732;2023-03-09T12:22:04;104.87;;;25.97;;
2570;SDS011;1295;51.130;6.732;2023-03-09T12:24:52;110.17;;;27.33;;
2570;SDS011;1295;51.130;6.732;2023-03-09T12:27:18;114.30;;;28.10;;
2570;SDS011;1295;51.130;6.732;2023-03-09T12:29:46;118.00;;;31.87;;
2570;SDS011;1295;51.130;6.732;2023-03-09T12:35:01;98.67;;;22.10;;
2570;SDS011;1295;51.130;6.732;2023-03-09T12:40:32;107.93;;;24.47;;
2570;SDS011;1295;51.130;6.732;2023-03-09T12:43:31;99.13;;;22.77;;
2570;SDS011;1295;51.130;6.732;2023-03-09T12:45:30;94.97;;;23.03;;
2570;SDS011;1295;51.130;6.732;2023-03-09T12:48:02;101.10;;;25.67;;
2570;SDS011;1295;51.130;6.732;2023-03-09T12:50:30;100.10;;;22.90;;
2570;SDS011;1295;51.130;6.732;2023-03-09T12:52:55;99.57;;;22.90;;
2570;SDS011;1295;51.130;6.732;2023-03-09T12:55:25;95.20;;;23.47;;
2570;SDS011;1295;51.130;6.732;2023-03-09T13:00:34;97.93;;;22.03;;
2570;SDS011;1295;51.130;6.732;2023-03-09T13:03:02;95.50;;;24.03;;
2570;SDS011;1295;51.130;6.732;2023-03-09T13:05:30;102.03;;;24.00;;
2570;SDS011;1295;51.130;6.732;2023-03-09T13:07:57;98.57;;;24.73;;
2570;SDS011;1295;51.130;6.732;2023-03-09T13:10:23;94.77;;;20.87;;
2570;SDS011;1295;51.130;6.732;2023-03-09T13:12:47;94.50;;;24.43;;
2570;SDS011;1295;51.130;6.732;2023-03-09T13:15:18;108.20;;;28.20;;
2570;SDS011;1295;51.130;6.732;2023-03-09T13:17:40;97.40;;;23.97;;
2570;SDS011;1295;51.130;6.732;2023-03-09T13:20:13;108.97;;;31.27;;
2570;SDS011;1295;51.130;6.732;2023-03-09T13:22:39;104.43;;;30.13;;
2570;SDS011;1295;51.130;6.732;2023-03-09T13:25:22;111.23;;;27.77;;
2570;SDS011;1295;51.130;6.732;2023-03-09T13:27:56;99.13;;;26.20;;
2570;SDS011;1295;51.130;6.732;2023-03-09T13:30:19;109.17;;;33.00;;
2570;SDS011;1295;51.130;6.732;2023-03-09T13:32:53;105.20;;;31.53;;
2570;SDS011;1295;51.130;6.732;2023-03-09T13:35:17;111.80;;;33.57;;
2570;SDS011;1295;51.130;6.732;2023-03-09T13:37:43;109.00;;;34.80;;
2570;SDS011;1295;51.130;6.732;2023-03-09T13:42:55;123.03;;;38.90;;
2570;SDS011;1295;51.130;6.732;2023-03-09T13:45:22;103.30;;;34.43;;
2570;SDS011;1295;51.130;6.732;2023-03-09T13:47:53;113.77;;;35.70;;
2570;SDS011;1295;51.130;6.732;2023-03-09T13:50:21;135.07;;;40.67;;
2570;SDS011;1295;51.130;6.732;2023-03-09T13:52:57;114.80;;;37.50;;
2570;SDS011;1295;51.130;6.732;2023-03-09T13:55:19;126.37;;;35.40;;
2570;SDS011;1295;51.130;6.732;2023-03-09T13:57:45;113.70;;;47.00;;
2570;SDS011;1295;51.130;6.732;2023-03-09T14:02:52;99.27;;;25.67;;
2570;SDS011;1295;51.130;6.732;2023-03-09T14:05:19;97.27;;;25.13;;
2570;SDS011;1295;51.130;6.732;2023-03-09T14:07:45;102.80;;;32.90;;
2570;SDS011;1295;51.130;6.732;2023-03-09T14:12:42;120.70;;;33.70;;
2570;SDS011;1295;51.130;6.732;2023-03-09T14:15:15;100.37;;;25.57;;
2570;SDS011;1295;51.130;6.732;2023-03-09T14:17:33;109.77;;;43.60;;
2570;SDS011;1295;51.130;6.732;2023-03-09T14:19:59;114.23;;;35.27;;
2570;SDS011;1295;51.130;6.732;2023-03-09T14:22:27;111.80;;;35.20;;
2570;SDS011;1295;51.130;6.732;2023-03-09T14:24:52;119.83;;;34.60;;
2570;SDS011;1295;51.130;6.732;2023-03-09T14:27:21;129.50;;;35.50;;
2570;SDS011;1295;51.130;6.732;2023-03-09T14:29:47;111.87;;;28.90;;
2570;SDS011;1295;51.130;6.732;2023-03-09T14:32:16;117.03;;;29.60;;
2570;SDS011;1295;51.130;6.732;2023-03-09T14:34:42;97.10;;;28.73;;
2570;SDS011;1295;51.130;6.732;2023-03-09T14:37:15;109.90;;;27.47;;
2570;SDS011;1295;51.130;6.732;2023-03-09T14:39:34;106.80;;;29.03;;
2570;SDS011;1295;51.130;6.732;2023-03-09T14:42:01;98.17;;;27.53;;
2570;SDS011;1295;51.130;6.732;2023-03-09T14:44:33;99.13;;;26.13;;
2570;SDS011;1295;51.130;6.732;2023-03-09T14:46:53;94.47;;;22.50;;
2570;SDS011;1295;51.130;6.732;2023-03-09T14:49:19;108.17;;;22.80;;
2570;SDS011;1295;51.130;6.732;2023-03-09T14:51:45;107.93;;;29.63;;
2570;SDS011;1295;51.130;6.732;2023-03-09T14:54:11;99.70;;;25.10;;
2570;SDS011;1295;51.130;6.732;2023-03-09T14:56:36;97.40;;;25.00;;
2570;SDS011;1295;51.130;6.732;2023-03-09T14:59:08;97.33;;;24.67;;
2570;SDS011;1295;51.130;6.732;2023-03-09T15:01:29;91.30;;;24.77;;
2570;SDS011;1295;51.130;6.732;2023-03-09T15:03:55;105.00;;;27.47;;
2570;SDS011;1295;51.130;6.732;2023-03-09T15:06:21;95.17;;;26.23;;
2570;SDS011;1295;51.130;6.732;2023-03-09T15:08:46;101.87;;;26.80;;